createdAt,value
2023-05-05T00:00:30.707Z,1.50
2023-05-05T00:03:23.871Z,1.30
2023-05-05T00:05:59.020Z,1.50
2023-05-05T00:08:35.221Z,1.60
2023-05-05T00:11:08.562Z,1.50
2023-05-05T00:13:37.551Z,1.60
2023-05-05T00:16:23.499Z,1.50
2023-05-05T00:18:50.296Z,1.60
2023-05-05T00:21:17.014Z,1.50
2023-05-05T00:23:43.586Z,1.50
2023-05-05T00:26:10.327Z,1.50
2023-05-05T00:28:37.776Z,1.40
2023-05-05T00:31:04.690Z,1.50
2023-05-05T00:33:31.431Z,1.50
2023-05-05T00:35:58.137Z,1.50
2023-05-05T00:38:24.731Z,1.30
2023-05-05T00:40:54.225Z,1.50
2023-05-05T00:45:59.627Z,1.60
2023-05-05T00:48:27.873Z,1.50
2023-05-05T00:50:54.604Z,1.50
2023-05-05T00:53:21.655Z,1.50
2023-05-05T00:55:49.153Z,1.60
2023-05-05T00:58:16.984Z,1.50
2023-05-05T01:00:43.938Z,1.30
2023-05-05T01:03:14.564Z,1.20
2023-05-05T01:06:07.354Z,1.30
2023-05-05T01:09:17.071Z,1.20
2023-05-05T01:11:56.055Z,1.30
2023-05-05T01:14:36.326Z,1.60
2023-05-05T01:17:33.240Z,1.50
2023-05-05T01:20:14.972Z,1.20
2023-05-05T01:23:05.373Z,1.30
2023-05-05T01:25:50.152Z,1.30
2023-05-05T01:29:00.128Z,1.20
2023-05-05T01:32:05.956Z,1.40
2023-05-05T01:34:44.380Z,1.20
2023-05-05T01:37:21.780Z,1.20
2023-05-05T01:40:11.333Z,1.20
2023-05-05T01:42:41.966Z,0.90
2023-05-05T01:45:14.059Z,1.10
2023-05-05T01:50:10.871Z,1.30
2023-05-05T01:52:39.432Z,1.30
2023-05-05T01:55:08.249Z,1.10
2023-05-05T01:57:38.489Z,1.50
2023-05-05T02:00:07.354Z,1.20
2023-05-05T02:02:44.720Z,1.30
2023-05-05T02:05:13.125Z,1.20
2023-05-05T02:07:40.155Z,1.50
2023-05-05T02:10:08.986Z,1.50
2023-05-05T02:12:36.975Z,1.40
2023-05-05T02:15:05.340Z,1.40
2023-05-05T02:17:32.747Z,1.50
2023-05-05T02:20:02.314Z,1.40
2023-05-05T02:22:28.939Z,1.40
2023-05-05T02:24:55.604Z,1.10
2023-05-05T02:27:24.044Z,1.10
2023-05-05T02:29:55.995Z,1.20
2023-05-05T02:33:15.660Z,1.40
2023-05-05T02:35:52.356Z,1.50
2023-05-05T02:38:27.184Z,1.40
2023-05-05T02:40:57.624Z,1.60
2023-05-05T02:43:26.777Z,1.80
2023-05-05T02:45:53.556Z,1.60
2023-05-05T02:48:20.606Z,1.40
2023-05-05T02:50:48.889Z,1.60
2023-05-05T02:53:36.196Z,1.50
2023-05-05T02:56:32.636Z,1.60
2023-05-05T02:59:09.405Z,1.70
2023-05-05T03:01:56.096Z,1.30
2023-05-05T03:04:28.690Z,1.50
2023-05-05T03:07:06.145Z,1.60
2023-05-05T03:09:39.252Z,1.50
2023-05-05T03:12:11.936Z,1.10
2023-05-05T03:14:51.316Z,1.50
2023-05-05T03:17:19.776Z,1.70
2023-05-05T03:19:48.982Z,1.40
2023-05-05T03:22:18.074Z,1.50
2023-05-05T03:24:51.134Z,1.40
2023-05-05T03:27:21.530Z,1.30
2023-05-05T03:29:51.309Z,1.40
2023-05-05T03:32:23.055Z,1.30
2023-05-05T03:34:50.284Z,1.50
2023-05-05T03:37:17.261Z,1.40
2023-05-05T03:39:44.017Z,1.30
2023-05-05T03:42:11.250Z,1.20
2023-05-05T03:44:40.732Z,1.40
2023-05-05T03:47:11.067Z,1.20
2023-05-05T03:49:38.442Z,1.50
2023-05-05T03:52:05.692Z,1.40
2023-05-05T03:54:32.550Z,1.30
2023-05-05T03:56:59.289Z,1.50
2023-05-05T03:59:26.276Z,1.70
2023-05-05T04:01:53.196Z,1.80
2023-05-05T04:04:20.900Z,2.00
2023-05-05T04:06:47.756Z,2.20
2023-05-05T04:09:17.771Z,2.40
2023-05-05T04:11:44.877Z,2.30
2023-05-05T04:14:11.897Z,2.40
2023-05-05T04:16:38.774Z,2.90
2023-05-05T04:19:05.612Z,2.60
2023-05-05T04:21:35.280Z,2.50
2023-05-05T04:24:02.888Z,2.40
2023-05-05T04:26:31.116Z,2.80
2023-05-05T04:29:01.150Z,3.30
2023-05-05T04:31:28.182Z,3.50
2023-05-05T04:33:54.884Z,3.80
2023-05-05T04:36:21.776Z,3.90
2023-05-05T04:38:49.402Z,4.50
2023-05-05T04:41:16.134Z,4.10
2023-05-05T04:43:43.131Z,4.20
2023-05-05T04:46:10.023Z,4.10
2023-05-05T04:48:37.918Z,4.70
2023-05-05T04:51:07.701Z,4.80
2023-05-05T04:53:37.876Z,5.20
2023-05-05T04:58:32.087Z,4.50
2023-05-05T05:00:58.864Z,4.70
2023-05-05T05:03:29.048Z,5.60
2023-05-05T05:05:56.010Z,5.60
2023-05-05T05:08:23.433Z,5.80
2023-05-05T05:10:50.786Z,5.40
2023-05-05T05:13:37.791Z,5.50
2023-05-05T05:16:05.981Z,5.60
2023-05-05T05:18:33.171Z,5.70
2023-05-05T05:21:00.261Z,6.00
2023-05-05T05:23:27.324Z,5.50
2023-05-05T05:25:54.274Z,5.40
2023-05-05T05:28:21.432Z,5.20
2023-05-05T05:30:52.106Z,5.20
2023-05-05T05:33:21.597Z,5.00
2023-05-05T05:35:49.101Z,5.70
2023-05-05T05:38:17.386Z,5.50
2023-05-05T05:40:44.130Z,6.00
2023-05-05T05:43:10.789Z,5.20
2023-05-05T05:45:38.337Z,5.20
2023-05-05T05:48:05.709Z,5.60
2023-05-05T05:50:32.517Z,5.80
2023-05-05T05:52:59.582Z,5.10
2023-05-05T05:55:26.610Z,5.60
2023-05-05T05:57:53.493Z,5.20
2023-05-05T06:00:20.541Z,4.70
2023-05-05T06:02:51.122Z,4.90
2023-05-05T06:07:47.660Z,4.90
2023-05-05T06:10:27.201Z,5.00
2023-05-05T06:12:59.930Z,4.40
2023-05-05T06:15:26.782Z,4.60
2023-05-05T06:17:54.089Z,4.70
2023-05-05T06:20:21.876Z,4.60
2023-05-05T06:22:48.877Z,4.30
2023-05-05T06:25:16.068Z,4.80
2023-05-05T06:27:42.703Z,4.80
2023-05-05T06:30:10.245Z,4.70
2023-05-05T06:32:37.219Z,4.50
2023-05-05T06:35:04.260Z,4.20
2023-05-05T06:37:31.005Z,4.50
2023-05-05T06:39:57.741Z,4.70
2023-05-05T06:42:24.434Z,4.50
2023-05-05T06:44:52.110Z,4.10
2023-05-05T06:47:19.339Z,4.10
2023-05-05T06:49:46.015Z,4.40
2023-05-05T06:52:12.794Z,4.20
2023-05-05T06:54:39.426Z,4.40
2023-05-05T06:57:06.421Z,3.90
2023-05-05T06:59:33.025Z,3.20
2023-05-05T07:01:59.855Z,3.00
2023-05-05T07:04:26.662Z,4.00
2023-05-05T07:06:54.531Z,4.10
2023-05-05T07:09:21.150Z,4.40
2023-05-05T07:11:47.709Z,4.40
2023-05-05T07:14:15.713Z,3.80
2023-05-05T07:16:42.378Z,4.40
2023-05-05T07:19:09.193Z,2.60
2023-05-05T07:21:35.983Z,2.90
2023-05-05T07:24:03.050Z,2.90
2023-05-05T07:26:29.819Z,2.90
2023-05-05T07:28:58.015Z,3.00
2023-05-05T07:31:25.739Z,2.60
2023-05-05T07:33:52.389Z,2.40
2023-05-05T07:36:19.796Z,2.80
2023-05-05T07:38:46.487Z,2.40
2023-05-05T07:41:13.230Z,2.10
2023-05-05T07:43:41.678Z,2.20
2023-05-05T07:46:09.813Z,2.00
2023-05-05T07:48:36.824Z,2.20
2023-05-05T07:51:03.484Z,2.00
2023-05-05T07:53:30.464Z,1.80
2023-05-05T07:55:57.047Z,1.80
2023-05-05T07:58:23.741Z,1.90
2023-05-05T08:00:50.702Z,1.80
2023-05-05T08:03:20.011Z,1.70
2023-05-05T08:05:46.799Z,1.80
2023-05-05T08:08:13.374Z,1.60
2023-05-05T08:10:39.952Z,1.50
2023-05-05T08:13:06.861Z,1.70
2023-05-05T08:15:33.629Z,1.30
2023-05-05T08:18:00.494Z,1.60
2023-05-05T08:20:28.796Z,1.50
2023-05-05T08:22:55.823Z,1.60
2023-05-05T08:25:22.857Z,1.70
2023-05-05T08:27:50.239Z,1.60
2023-05-05T08:30:20.233Z,1.40
2023-05-05T08:32:46.966Z,1.60
2023-05-05T08:35:13.835Z,1.40
2023-05-05T08:37:40.757Z,1.50
2023-05-05T08:40:10.909Z,1.30
2023-05-05T08:42:39.147Z,1.70
2023-05-05T08:45:08.683Z,1.70
2023-05-05T08:47:36.974Z,3.00
2023-05-05T08:50:07.478Z,1.80
2023-05-05T08:52:49.840Z,1.70
2023-05-05T08:55:26.023Z,1.50
2023-05-05T08:57:56.248Z,5.30
2023-05-05T09:00:25.872Z,1.80
2023-05-05T09:02:55.644Z,1.70
2023-05-05T09:05:23.468Z,2.20
2023-05-05T09:07:50.647Z,1.60
2023-05-05T09:10:20.302Z,1.90
2023-05-05T09:12:49.140Z,1.60
2023-05-05T09:15:18.496Z,1.70
2023-05-05T09:17:46.503Z,6.00
2023-05-05T09:20:14.408Z,1.90
2023-05-05T09:22:43.705Z,1.70
2023-05-05T09:25:15.698Z,1.60
2023-05-05T09:27:45.238Z,1.60
2023-05-05T09:30:16.002Z,1.70
2023-05-05T09:32:48.188Z,1.60
2023-05-05T09:35:16.129Z,1.70
2023-05-05T09:37:46.144Z,1.70
2023-05-05T09:40:14.575Z,1.60
2023-05-05T09:42:41.186Z,1.80
2023-05-05T09:45:16.765Z,1.60
2023-05-05T09:47:47.595Z,1.70
2023-05-05T09:50:18.031Z,1.60
2023-05-05T09:52:59.345Z,1.60
2023-05-05T09:55:26.518Z,1.80
2023-05-05T09:57:53.524Z,1.80
2023-05-05T10:00:21.301Z,1.80
2023-05-05T10:02:48.141Z,1.80
2023-05-05T10:05:16.838Z,1.70
2023-05-05T10:10:16.493Z,1.80
2023-05-05T10:12:46.051Z,1.60
2023-05-05T10:15:15.121Z,1.90
2023-05-05T10:20:20.064Z,1.70
2023-05-05T10:22:52.214Z,2.10
2023-05-05T10:25:30.532Z,1.70
2023-05-05T10:28:02.248Z,1.80
2023-05-05T10:30:33.158Z,1.90
2023-05-05T10:33:31.751Z,1.90
2023-05-05T10:36:05.396Z,1.90
2023-05-05T10:38:35.566Z,1.70
2023-05-05T10:41:03.180Z,1.90
2023-05-05T10:43:31.443Z,1.90
2023-05-05T10:45:58.828Z,1.70
2023-05-05T10:48:35.455Z,1.80
2023-05-05T10:51:40.436Z,1.80
2023-05-05T10:54:19.276Z,1.50
2023-05-05T10:56:46.553Z,2.00
2023-05-05T10:59:40.384Z,1.90
2023-05-05T11:02:27.472Z,1.80
2023-05-05T11:05:17.155Z,1.70
2023-05-05T11:07:45.606Z,1.90
2023-05-05T11:10:14.896Z,1.80
2023-05-05T11:13:01.988Z,1.90
2023-05-05T11:15:28.901Z,1.90
2023-05-05T11:18:05.766Z,1.90
2023-05-05T11:20:36.994Z,2.00
2023-05-05T11:23:03.628Z,1.90
2023-05-05T11:25:40.201Z,2.00
2023-05-05T11:28:10.835Z,2.10
2023-05-05T11:30:56.019Z,2.00
2023-05-05T11:33:33.211Z,2.20
2023-05-05T11:36:02.815Z,1.90
2023-05-05T11:38:47.148Z,1.90
2023-05-05T11:41:26.864Z,2.10
2023-05-05T11:44:15.375Z,2.00
2023-05-05T11:46:51.240Z,2.10
2023-05-05T11:49:27.792Z,2.30
2023-05-05T11:52:07.552Z,1.80
2023-05-05T11:54:36.188Z,2.10
2023-05-05T11:59:32.307Z,2.00
2023-05-05T12:01:59.609Z,1.90
2023-05-05T12:04:26.482Z,2.00
2023-05-05T12:06:54.721Z,1.70
2023-05-05T12:09:22.657Z,1.90
2023-05-05T12:11:51.167Z,1.90
2023-05-05T12:14:18.209Z,1.60
2023-05-05T12:16:57.169Z,1.80
2023-05-05T12:19:24.463Z,2.10
2023-05-05T12:21:53.620Z,1.80
2023-05-05T12:24:20.238Z,2.10
2023-05-05T12:26:47.255Z,1.80
2023-05-05T12:29:23.851Z,2.10
2023-05-05T12:31:51.115Z,2.10
2023-05-05T12:34:18.704Z,2.30
2023-05-05T12:36:46.017Z,2.40
2023-05-05T12:39:12.982Z,2.30
2023-05-05T12:41:39.607Z,1.80
2023-05-05T12:44:06.476Z,1.90
2023-05-05T12:46:46.830Z,1.90
2023-05-05T12:49:14.017Z,1.80
2023-05-05T12:51:55.976Z,2.00
2023-05-05T12:54:24.331Z,2.30
2023-05-05T12:56:51.117Z,2.20
2023-05-05T12:59:21.097Z,2.00
2023-05-05T13:01:55.891Z,2.10
2023-05-05T13:04:27.292Z,2.10
2023-05-05T13:07:12.443Z,1.80
2023-05-05T13:09:39.824Z,1.80
2023-05-05T13:12:08.016Z,2.00
2023-05-05T13:14:35.850Z,2.00
2023-05-05T13:17:05.429Z,2.20
2023-05-05T13:19:41.124Z,2.10
2023-05-05T13:22:12.254Z,1.90
2023-05-05T13:24:50.811Z,2.30
2023-05-05T13:27:19.870Z,1.90
2023-05-05T13:29:47.256Z,2.00
2023-05-05T13:32:14.077Z,2.00
2023-05-05T13:34:41.928Z,1.80
2023-05-05T13:37:08.949Z,1.90
2023-05-05T13:39:36.281Z,1.90
2023-05-05T13:42:03.041Z,1.80
2023-05-05T13:44:29.909Z,1.70
2023-05-05T13:46:57.225Z,2.00
2023-05-05T13:49:24.140Z,1.90
2023-05-05T13:51:50.683Z,2.00
2023-05-05T13:54:17.425Z,2.00
2023-05-05T13:56:44.019Z,1.90
2023-05-05T13:59:10.651Z,2.00
2023-05-05T14:01:37.931Z,1.90
2023-05-05T14:04:05.862Z,1.80
2023-05-05T14:06:33.462Z,1.70
2023-05-05T14:09:00.793Z,1.80
2023-05-05T14:11:27.510Z,1.90
2023-05-05T14:13:54.290Z,1.90
2023-05-05T14:16:21.187Z,1.80
2023-05-05T14:18:48.061Z,1.90
2023-05-05T14:21:14.797Z,2.10
2023-05-05T14:23:41.432Z,1.80
2023-05-05T14:26:08.235Z,1.80
2023-05-05T14:28:34.783Z,1.70
2023-05-05T14:31:01.589Z,1.80
2023-05-05T14:33:28.392Z,1.60
2023-05-05T14:35:55.033Z,1.70
2023-05-05T14:38:22.034Z,2.00
2023-05-05T14:40:48.792Z,1.90
2023-05-05T14:43:15.512Z,1.80
2023-05-05T14:45:43.538Z,1.70
2023-05-05T14:48:10.250Z,1.80
2023-05-05T14:50:37.935Z,1.70
2023-05-05T14:53:04.761Z,1.80
2023-05-05T14:55:32.577Z,1.80
2023-05-05T14:57:59.213Z,1.60
2023-05-05T15:00:26.196Z,1.70
2023-05-05T15:02:56.126Z,1.80
2023-05-05T15:05:22.847Z,1.60
2023-05-05T15:07:49.867Z,1.80
2023-05-05T15:10:18.173Z,1.90
2023-05-05T15:12:45.762Z,1.80
2023-05-05T15:15:14.130Z,1.80
2023-05-05T15:17:41.335Z,1.80
2023-05-05T15:20:08.714Z,1.80
2023-05-05T15:22:35.764Z,1.60
2023-05-05T15:25:02.869Z,1.70
2023-05-05T15:27:31.005Z,2.10
2023-05-05T15:29:57.939Z,1.90
2023-05-05T15:32:24.752Z,1.60
2023-05-05T15:34:51.563Z,1.60
2023-05-05T15:37:18.255Z,1.70
2023-05-05T15:39:47.739Z,1.80
2023-05-05T15:42:14.370Z,1.90
2023-05-05T15:44:40.904Z,1.80
2023-05-05T15:47:08.479Z,1.90
2023-05-05T15:49:38.171Z,1.80
2023-05-05T15:52:04.796Z,2.00
2023-05-05T15:54:31.372Z,1.80
2023-05-05T15:56:58.015Z,1.60
2023-05-05T15:59:25.352Z,1.70
2023-05-05T16:01:52.319Z,1.40
2023-05-05T16:04:18.862Z,1.70
2023-05-05T16:06:45.517Z,1.50
2023-05-05T16:09:12.538Z,1.60
2023-05-05T16:11:39.280Z,1.80
2023-05-05T16:14:06.020Z,1.80
2023-05-05T16:16:32.894Z,1.70
2023-05-05T16:18:59.581Z,2.00
2023-05-05T16:21:26.958Z,1.70
2023-05-05T16:23:53.899Z,1.90
2023-05-05T16:26:20.794Z,1.90
2023-05-05T16:28:48.058Z,1.90
2023-05-05T16:31:14.806Z,1.80
2023-05-05T16:33:43.137Z,1.60
2023-05-05T16:36:11.699Z,1.80
2023-05-05T16:38:39.437Z,2.10
2023-05-05T16:41:06.524Z,2.00
2023-05-05T16:43:36.327Z,2.00
2023-05-05T16:46:03.537Z,2.10
2023-05-05T16:48:33.086Z,2.50
2023-05-05T16:50:59.854Z,2.20
2023-05-05T16:53:26.618Z,2.50
2023-05-05T16:55:54.043Z,3.60
2023-05-05T16:58:24.621Z,2.20
2023-05-05T17:00:51.936Z,2.00
2023-05-05T17:03:19.786Z,2.20
2023-05-05T17:05:49.146Z,2.30
2023-05-05T17:08:16.830Z,2.00
2023-05-05T17:10:44.923Z,2.20
2023-05-05T17:13:13.362Z,1.90
2023-05-05T17:15:40.289Z,1.90
2023-05-05T17:18:08.030Z,2.20
2023-05-05T17:20:35.824Z,1.90
2023-05-05T17:23:02.816Z,2.10
2023-05-05T17:25:29.563Z,1.90
2023-05-05T17:27:56.932Z,2.00
2023-05-05T17:30:32.648Z,1.90
2023-05-05T17:32:59.433Z,2.30
2023-05-05T17:35:26.254Z,2.20
2023-05-05T17:37:53.150Z,2.20
2023-05-05T17:40:20.098Z,2.40
2023-05-05T17:42:46.983Z,2.50
2023-05-05T17:45:13.736Z,2.60
2023-05-05T17:47:40.383Z,2.70
2023-05-05T17:50:09.697Z,2.50
2023-05-05T17:52:36.814Z,2.50
2023-05-05T17:55:03.840Z,3.20
2023-05-05T17:57:30.814Z,2.80
2023-05-05T17:59:57.607Z,2.60
2023-05-05T18:02:24.600Z,2.70
2023-05-05T18:04:51.472Z,2.70
2023-05-05T18:07:18.171Z,3.30
2023-05-05T18:09:44.784Z,2.60
2023-05-05T18:12:11.497Z,2.80
2023-05-05T18:14:38.173Z,3.00
2023-05-05T18:17:04.939Z,2.60
2023-05-05T18:19:31.807Z,3.10
2023-05-05T18:21:58.496Z,2.80
2023-05-05T18:24:25.620Z,2.60
2023-05-05T18:26:52.869Z,2.60
2023-05-05T18:29:21.220Z,3.50
2023-05-05T18:31:51.002Z,2.80
2023-05-05T18:34:18.808Z,3.10
2023-05-05T18:36:46.761Z,3.20
2023-05-05T18:39:13.904Z,3.70
2023-05-05T18:41:40.582Z,3.90
2023-05-05T18:44:07.386Z,4.40
2023-05-05T18:46:34.277Z,4.10
2023-05-05T18:49:01.304Z,5.40
2023-05-05T18:51:28.235Z,4.50
2023-05-05T18:53:55.004Z,5.00
2023-05-05T18:56:21.717Z,4.70
2023-05-05T18:58:48.859Z,4.20
2023-05-05T19:01:15.654Z,3.60
2023-05-05T19:03:45.849Z,3.60
2023-05-05T19:06:13.064Z,3.40
2023-05-05T19:08:39.910Z,3.50
2023-05-05T19:16:10.513Z,3.20
2023-05-05T19:18:37.287Z,3.10
2023-05-05T19:21:06.763Z,3.10
2023-05-05T19:23:35.470Z,2.90
2023-05-05T19:26:05.347Z,2.60
2023-05-05T19:28:32.775Z,3.00
2023-05-05T19:30:59.563Z,2.70
2023-05-05T19:33:26.398Z,3.30
2023-05-05T19:35:53.100Z,2.70
2023-05-05T19:38:19.686Z,2.50
2023-05-05T19:40:46.599Z,2.40
2023-05-05T19:43:15.689Z,2.30
2023-05-05T19:48:09.235Z,2.50
2023-05-05T19:50:36.224Z,2.50
2023-05-05T19:53:04.202Z,2.20
2023-05-05T19:55:32.507Z,2.10
2023-05-05T19:57:59.172Z,2.20
2023-05-05T20:00:29.225Z,2.10
2023-05-05T20:02:55.923Z,2.70
2023-05-05T20:05:22.684Z,2.60
2023-05-05T20:07:50.367Z,2.80
2023-05-05T20:10:17.415Z,2.70
2023-05-05T20:12:47.145Z,2.60
2023-05-05T20:15:19.908Z,2.50
2023-05-05T20:17:47.751Z,2.40
2023-05-05T20:20:16.979Z,2.60
2023-05-05T20:22:44.837Z,2.40
2023-05-05T20:25:12.087Z,2.50
2023-05-05T20:27:38.939Z,2.50
2023-05-05T20:30:07.189Z,2.40
2023-05-05T20:32:34.194Z,2.30
2023-05-05T20:35:05.431Z,2.30
2023-05-05T20:37:32.149Z,2.40
2023-05-05T20:39:58.772Z,2.60
2023-05-05T20:42:26.954Z,2.60
2023-05-05T20:44:53.563Z,2.70
2023-05-05T20:47:20.552Z,2.60
2023-05-05T20:49:47.461Z,2.60
2023-05-05T20:52:14.170Z,3.00
2023-05-05T20:54:40.865Z,3.30
2023-05-05T20:57:07.496Z,2.70
2023-05-05T20:59:34.238Z,2.70
2023-05-05T21:02:01.241Z,2.60
2023-05-05T21:04:28.437Z,2.50
2023-05-05T21:06:56.714Z,2.50
2023-05-05T21:09:23.643Z,2.70
2023-05-05T21:11:50.322Z,2.10
2023-05-05T21:14:17.042Z,2.20
2023-05-05T21:16:43.752Z,2.30
2023-05-05T21:19:10.626Z,2.10
2023-05-05T21:21:37.568Z,2.40
2023-05-05T21:24:06.966Z,2.10
2023-05-05T21:26:36.678Z,2.30
2023-05-05T21:29:04.142Z,3.00
2023-05-05T21:31:30.978Z,2.20
2023-05-05T21:33:57.800Z,1.90
2023-05-05T21:36:24.401Z,2.10
2023-05-05T21:38:54.620Z,2.30
2023-05-05T21:41:22.565Z,2.50
2023-05-05T21:43:49.328Z,2.70
2023-05-05T21:46:17.521Z,2.50
2023-05-05T21:48:46.569Z,2.70
2023-05-05T21:51:13.511Z,2.00
2023-05-05T21:53:40.284Z,2.20
2023-05-05T21:56:10.189Z,2.00
2023-05-05T21:58:36.995Z,2.20
2023-05-05T22:01:03.752Z,2.10
2023-05-05T22:03:30.625Z,2.30
2023-05-05T22:05:57.431Z,2.30
2023-05-05T22:08:24.370Z,2.40
2023-05-05T22:10:51.738Z,2.20
2023-05-05T22:13:18.601Z,2.20
2023-05-05T22:15:47.518Z,2.30
2023-05-05T22:18:15.505Z,2.30
2023-05-05T22:20:42.774Z,2.10
2023-05-05T22:23:09.434Z,2.40
2023-05-05T22:25:36.244Z,2.10
2023-05-05T22:28:03.519Z,2.70
2023-05-05T22:30:30.479Z,2.40
2023-05-05T22:32:57.274Z,2.40
2023-05-05T22:35:23.954Z,2.50
2023-05-05T22:37:51.105Z,2.40
2023-05-05T22:40:17.852Z,2.60
2023-05-05T22:42:44.712Z,2.20
2023-05-05T22:45:12.377Z,2.40
2023-05-05T22:47:39.432Z,2.30
2023-05-05T22:50:09.530Z,2.20
2023-05-05T22:52:36.566Z,2.30
2023-05-05T22:55:07.182Z,2.20
2023-05-05T22:57:35.636Z,2.40
2023-05-05T23:00:04.583Z,2.40
2023-05-05T23:02:31.830Z,2.30
2023-05-05T23:04:58.698Z,2.30
2023-05-05T23:07:25.488Z,2.20
2023-05-05T23:09:52.555Z,2.50
2023-05-05T23:12:19.331Z,2.50
2023-05-05T23:14:46.157Z,2.70
2023-05-05T23:17:12.966Z,2.30
2023-05-05T23:19:39.852Z,2.20
2023-05-05T23:22:06.427Z,2.30
2023-05-05T23:24:34.647Z,2.30
2023-05-05T23:27:01.491Z,2.60
2023-05-05T23:29:28.852Z,3.00
2023-05-05T23:31:56.254Z,2.90
2023-05-05T23:34:23.176Z,2.90
2023-05-05T23:36:49.996Z,2.90
2023-05-05T23:39:16.784Z,2.70
2023-05-05T23:41:43.471Z,3.00
2023-05-05T23:44:10.154Z,3.00
2023-05-05T23:46:36.829Z,2.80
2023-05-05T23:49:03.592Z,3.00
2023-05-05T23:51:30.392Z,2.70
2023-05-05T23:53:57.177Z,2.70
2023-05-05T23:56:24.250Z,2.60
2023-05-05T23:58:53.704Z,2.60
